createdAt,value
2022-12-25T00:00:21.535Z,99040.76
2022-12-25T00:03:26.286Z,99048.41
2022-12-25T00:06:31.030Z,99053.61
2022-12-25T00:09:35.633Z,99057.77
2022-12-25T00:12:40.304Z,99056.66
2022-12-25T00:15:44.873Z,99060.05
2022-12-25T00:18:49.788Z,99072.84
2022-12-25T00:21:54.373Z,99076.07
2022-12-25T00:24:58.842Z,99073.56
2022-12-25T00:28:03.272Z,99073.15
2022-12-25T00:31:08.817Z,99078.56
2022-12-25T00:34:13.393Z,99087.67
2022-12-25T00:37:17.872Z,99090.67
2022-12-25T00:40:22.390Z,99092.23
2022-12-25T00:43:26.976Z,99097.77
2022-12-25T00:46:31.563Z,99103.45
2022-12-25T00:49:36.070Z,99106.25
2022-12-25T00:52:40.762Z,99111.64
2022-12-25T00:55:45.264Z,99117.91
2022-12-25T00:58:49.781Z,99121.00
2022-12-25T01:01:54.372Z,99123.42
2022-12-25T01:04:59.059Z,99123.59
2022-12-25T01:08:03.605Z,99126.48
2022-12-25T01:11:08.908Z,99134.73
2022-12-25T01:14:13.461Z,99143.88
2022-12-25T01:17:18.074Z,99149.95
2022-12-25T01:20:22.597Z,99151.23
2022-12-25T01:23:27.095Z,99155.21
2022-12-25T01:26:31.752Z,99155.48
2022-12-25T01:29:36.366Z,99154.41
2022-12-25T01:32:40.999Z,99156.44
2022-12-25T01:35:45.481Z,99159.40
2022-12-25T01:38:50.439Z,99159.81
2022-12-25T01:41:55.024Z,99165.23
2022-12-25T01:45:22.357Z,99161.81
2022-12-25T01:48:29.128Z,99159.98
2022-12-25T01:51:36.599Z,99163.35
2022-12-25T01:54:42.615Z,99164.95
2022-12-25T01:57:47.547Z,99166.27
2022-12-25T02:00:52.521Z,99159.14
2022-12-25T02:04:00.835Z,99160.52
2022-12-25T02:07:05.596Z,99165.40
2022-12-25T02:10:12.167Z,99170.02
2022-12-25T02:13:18.430Z,99168.10
2022-12-25T02:16:25.460Z,99171.11
2022-12-25T02:19:38.557Z,99174.95
2022-12-25T02:22:51.637Z,99177.56
2022-12-25T02:26:03.911Z,99183.40
2022-12-25T02:29:11.586Z,99188.31
2022-12-25T02:32:19.472Z,99187.23
2022-12-25T02:35:28.252Z,99183.91
2022-12-25T02:38:34.592Z,99184.84
2022-12-25T02:41:41.184Z,99193.64
2022-12-25T02:45:04.823Z,99197.20
2022-12-25T02:48:23.783Z,99194.92
2022-12-25T02:51:47.870Z,99193.39
2022-12-25T02:55:12.162Z,99195.61
2022-12-25T02:58:35.722Z,99197.15
2022-12-25T03:01:58.153Z,99200.69
2022-12-25T03:05:22.154Z,99209.34
2022-12-25T03:08:29.294Z,99214.96
2022-12-25T03:11:34.088Z,99216.95
2022-12-25T03:14:55.822Z,99214.83
2022-12-25T03:18:01.932Z,99207.89
2022-12-25T03:21:24.307Z,99209.77
2022-12-25T03:24:46.339Z,99216.02
2022-12-25T03:27:54.117Z,99217.95
2022-12-25T03:31:15.209Z,99212.64
2022-12-25T03:34:56.650Z,99226.14
2022-12-25T03:38:22.011Z,99224.13
2022-12-25T03:41:48.304Z,99226.26
2022-12-25T03:45:20.883Z,99231.20
2022-12-25T03:48:43.842Z,99230.92
2022-12-25T03:52:07.209Z,99237.31
2022-12-25T03:55:30.801Z,99243.67
2022-12-25T03:58:52.503Z,99240.15
2022-12-25T04:02:14.532Z,99237.91
2022-12-25T04:05:36.502Z,99234.11
2022-12-25T04:08:58.512Z,99240.98
2022-12-25T04:12:20.484Z,99246.77
2022-12-25T04:15:42.512Z,99249.23
2022-12-25T04:19:01.455Z,99245.47
2022-12-25T04:22:23.485Z,99242.88
2022-12-25T04:25:45.623Z,99242.11
2022-12-25T04:29:18.739Z,99244.34
2022-12-25T04:32:40.867Z,99249.68
2022-12-25T04:36:06.320Z,99250.46
2022-12-25T04:39:11.798Z,99253.55
2022-12-25T04:42:16.621Z,99252.39
2022-12-25T04:45:21.585Z,99249.29
2022-12-25T04:48:26.641Z,99252.83
2022-12-25T04:51:31.156Z,99255.77
2022-12-25T04:54:35.678Z,99263.60
2022-12-25T04:57:40.282Z,99267.92
2022-12-25T05:00:44.855Z,99275.84
2022-12-25T05:03:49.363Z,99272.42
2022-12-25T05:06:53.864Z,99270.43
2022-12-25T05:09:58.451Z,99274.57
2022-12-25T05:13:03.143Z,99280.82
2022-12-25T05:16:08.883Z,99281.25
2022-12-25T05:19:13.512Z,99282.91
2022-12-25T05:22:18.249Z,99282.81
2022-12-25T05:25:22.795Z,99280.34
2022-12-25T05:28:27.269Z,99284.64
2022-12-25T05:31:31.920Z,99284.85
2022-12-25T05:34:36.439Z,99286.19
2022-12-25T05:37:40.952Z,99292.24
2022-12-25T05:40:45.523Z,99298.61
2022-12-25T05:43:49.995Z,99302.96
2022-12-25T05:46:54.486Z,99305.91
2022-12-25T05:49:58.974Z,99304.21
2022-12-25T05:53:08.293Z,99305.15
2022-12-25T05:56:13.558Z,99312.21
2022-12-25T05:59:18.094Z,99317.77
2022-12-25T06:02:22.744Z,99314.83
2022-12-25T06:05:27.774Z,99322.27
2022-12-25T06:08:32.281Z,99335.45
2022-12-25T06:11:36.784Z,99334.50
2022-12-25T06:14:41.427Z,99339.07
2022-12-25T06:17:45.951Z,99339.96
2022-12-25T06:20:50.503Z,99339.84
2022-12-25T06:23:55.146Z,99330.73
2022-12-25T06:26:59.719Z,99340.77
2022-12-25T06:30:04.282Z,99346.14
2022-12-25T06:33:08.805Z,99352.74
2022-12-25T06:36:14.407Z,99355.32
2022-12-25T06:39:19.128Z,99352.06
2022-12-25T06:42:23.690Z,99349.14
2022-12-25T06:45:28.287Z,99359.71
2022-12-25T06:48:33.318Z,99361.95
2022-12-25T06:51:37.932Z,99355.40
2022-12-25T06:54:42.526Z,99354.70
2022-12-25T06:57:47.213Z,99366.06
2022-12-25T07:00:51.942Z,99377.45
2022-12-25T07:03:57.810Z,99387.27
2022-12-25T07:07:08.394Z,99398.92
2022-12-25T07:10:13.687Z,99408.08
2022-12-25T07:13:18.178Z,99414.02
2022-12-25T07:16:22.710Z,99418.33
2022-12-25T07:19:27.294Z,99422.02
2022-12-25T07:22:32.047Z,99428.35
2022-12-25T07:25:37.627Z,99434.59
2022-12-25T07:28:42.185Z,99433.13
2022-12-25T07:31:46.798Z,99434.79
2022-12-25T07:34:51.399Z,99440.41
2022-12-25T07:37:55.882Z,99445.05
2022-12-25T07:41:03.231Z,99453.02
2022-12-25T07:44:07.824Z,99456.55
2022-12-25T07:47:12.371Z,99461.84
2022-12-25T07:50:16.911Z,99470.67
2022-12-25T07:53:21.395Z,99475.58
2022-12-25T07:56:25.944Z,99474.88
2022-12-25T07:59:30.453Z,99477.86
2022-12-25T08:02:35.157Z,99482.30
2022-12-25T08:05:39.836Z,99485.70
2022-12-25T08:08:44.304Z,99495.33
2022-12-25T08:11:49.136Z,99499.83
2022-12-25T08:14:53.551Z,99499.66
2022-12-25T08:17:58.112Z,99500.36
2022-12-25T08:21:05.320Z,99502.52
2022-12-25T08:24:11.011Z,99502.57
2022-12-25T08:27:15.460Z,99507.20
2022-12-25T08:30:20.271Z,99506.02
2022-12-25T08:33:24.707Z,99504.48
2022-12-25T08:36:29.572Z,99501.66
2022-12-25T08:39:34.192Z,99498.55
2022-12-25T08:42:39.046Z,99501.00
2022-12-25T08:45:44.224Z,99504.15
2022-12-25T08:48:49.590Z,99502.23
2022-12-25T08:51:54.170Z,99501.61
2022-12-25T08:54:58.784Z,99505.70
2022-12-25T08:58:03.294Z,99504.09
2022-12-25T09:01:09.097Z,99500.59
2022-12-25T09:04:13.642Z,99498.05
2022-12-25T09:07:18.135Z,99490.13
2022-12-25T09:10:23.249Z,99481.92
2022-12-25T09:13:27.744Z,99477.58
2022-12-25T09:16:33.088Z,99479.44
2022-12-25T09:19:37.644Z,99479.61
2022-12-25T09:22:42.259Z,99493.33
2022-12-25T09:25:46.744Z,99506.05
2022-12-25T09:28:52.722Z,99514.64
2022-12-25T09:31:57.497Z,99519.91
2022-12-25T09:35:01.964Z,99519.36
2022-12-25T09:38:06.555Z,99522.27
2022-12-25T09:41:21.448Z,99523.80
2022-12-25T09:44:27.142Z,99526.17
2022-12-25T09:47:33.621Z,99524.56
2022-12-25T09:50:42.850Z,99522.07
2022-12-25T09:53:51.566Z,99519.73
2022-12-25T09:56:56.217Z,99521.35
2022-12-25T10:00:01.075Z,99524.89
2022-12-25T10:03:15.429Z,99528.23
2022-12-25T10:06:22.232Z,99526.54
2022-12-25T10:09:41.551Z,99528.94
2022-12-25T10:12:53.917Z,99530.39
2022-12-25T10:16:05.714Z,99535.59
2022-12-25T10:19:23.014Z,99540.63
2022-12-25T10:22:31.415Z,99544.16
2022-12-25T10:25:38.378Z,99554.87
2022-12-25T10:28:44.060Z,99560.15
2022-12-25T10:31:49.699Z,99555.48
2022-12-25T10:34:54.522Z,99552.67
2022-12-25T10:38:00.921Z,99552.41
2022-12-25T10:41:12.327Z,99545.85
2022-12-25T10:44:20.441Z,99541.23
2022-12-25T10:47:26.755Z,99539.46
2022-12-25T10:50:33.826Z,99535.13
2022-12-25T10:53:41.110Z,99529.10
2022-12-25T10:56:54.746Z,99520.96
2022-12-25T10:59:59.292Z,99516.29
2022-12-25T11:03:04.646Z,99517.38
2022-12-25T11:06:21.567Z,99514.20
2022-12-25T11:09:26.142Z,99510.20
2022-12-25T11:12:32.779Z,99500.48
2022-12-25T11:15:39.181Z,99486.98
2022-12-25T11:18:48.800Z,99481.89
2022-12-25T11:21:54.353Z,99484.66
2022-12-25T11:24:58.845Z,99480.36
2022-12-25T11:28:04.165Z,99481.45
2022-12-25T11:31:09.793Z,99477.60
2022-12-25T11:34:18.634Z,99464.59
2022-12-25T11:37:25.789Z,99461.44
2022-12-25T11:40:36.006Z,99463.14
2022-12-25T11:43:42.250Z,99460.22
2022-12-25T11:46:52.291Z,99461.05
2022-12-25T11:50:00.963Z,99461.23
2022-12-25T11:53:07.457Z,99451.58
2022-12-25T11:56:15.122Z,99451.25
2022-12-25T11:59:21.675Z,99449.42
2022-12-25T12:02:29.700Z,99456.11
2022-12-25T12:05:36.500Z,99458.10
2022-12-25T12:10:34.974Z,99461.32
2022-12-25T12:13:56.103Z,99467.08
2022-12-25T12:17:02.897Z,99459.95
2022-12-25T12:20:28.148Z,99457.67
2022-12-25T12:23:38.168Z,99459.63
2022-12-25T12:26:46.307Z,99458.83
2022-12-25T12:29:55.432Z,99456.16
2022-12-25T12:33:03.320Z,99448.83
2022-12-25T12:36:12.717Z,99445.52
2022-12-25T12:39:27.256Z,99443.94
2022-12-25T12:42:38.953Z,99452.56
2022-12-25T12:45:44.926Z,99457.17
2022-12-25T12:48:53.601Z,99458.93
2022-12-25T12:52:26.670Z,99455.66
2022-12-25T12:55:34.933Z,99455.67
2022-12-25T12:58:50.141Z,99455.03
2022-12-25T13:02:07.204Z,99452.84
2022-12-25T13:05:21.117Z,99453.59
2022-12-25T13:08:43.636Z,99447.31
2022-12-25T13:11:50.526Z,99447.70
2022-12-25T13:14:57.115Z,99445.94
2022-12-25T13:18:08.299Z,99443.53
2022-12-25T13:21:23.461Z,99439.30
2022-12-25T13:24:32.230Z,99443.03
2022-12-25T13:27:38.561Z,99446.54
2022-12-25T13:30:47.202Z,99448.68
2022-12-25T13:33:58.009Z,99452.42
2022-12-25T13:37:11.364Z,99446.75
2022-12-25T13:40:29.361Z,99441.95
2022-12-25T13:43:35.600Z,99445.84
2022-12-25T13:46:40.144Z,99444.49
2022-12-25T13:49:46.971Z,99448.46
2022-12-25T13:52:54.176Z,99448.84
2022-12-25T13:56:01.466Z,99449.51
2022-12-25T13:59:07.834Z,99453.43
2022-12-25T14:02:21.563Z,99451.67
2022-12-25T14:05:34.745Z,99454.90
2022-12-25T14:08:46.397Z,99449.53
2022-12-25T14:11:55.152Z,99445.30
2022-12-25T14:15:02.275Z,99449.17
2022-12-25T14:18:15.594Z,99455.48
2022-12-25T14:21:28.827Z,99455.54
2022-12-25T14:24:36.101Z,99447.40
2022-12-25T14:27:42.356Z,99448.55
2022-12-25T14:30:46.996Z,99456.11
2022-12-25T14:33:54.207Z,99455.26
2022-12-25T14:37:01.197Z,99448.46
2022-12-25T14:40:21.704Z,99447.30
2022-12-25T14:43:30.723Z,99449.70
2022-12-25T14:46:37.426Z,99452.52
2022-12-25T14:49:44.180Z,99458.05
2022-12-25T14:52:50.524Z,99468.55
2022-12-25T14:55:56.277Z,99473.32
2022-12-25T14:59:04.039Z,99471.35
2022-12-25T15:02:20.437Z,99463.67
2022-12-25T15:05:33.137Z,99456.48
2022-12-25T15:08:41.243Z,99452.75
2022-12-25T15:11:50.898Z,99452.13
2022-12-25T15:14:57.086Z,99442.89
2022-12-25T15:18:05.277Z,99431.27
2022-12-25T15:21:16.726Z,99429.22
2022-12-25T15:24:23.014Z,99434.12
2022-12-25T15:27:27.596Z,99443.51
2022-12-25T15:30:35.585Z,99445.53
2022-12-25T15:33:44.256Z,99452.35
2022-12-25T15:36:52.682Z,99462.87
2022-12-25T15:39:59.606Z,99464.96
2022-12-25T15:43:11.553Z,99470.25
2022-12-25T15:46:28.868Z,99483.54
2022-12-25T15:49:33.476Z,99496.30
2022-12-25T15:52:39.843Z,99500.98
2022-12-25T15:55:44.323Z,99502.27
2022-12-25T15:58:50.857Z,99499.32
2022-12-25T16:01:58.836Z,99498.77
2022-12-25T16:05:10.292Z,99497.04
2022-12-25T16:08:17.032Z,99494.65
2022-12-25T16:11:21.634Z,99485.09
2022-12-25T16:14:27.679Z,99484.30
2022-12-25T16:17:33.887Z,99483.81
2022-12-25T16:20:40.103Z,99480.42
2022-12-25T16:23:46.643Z,99467.09
2022-12-25T16:26:52.930Z,99464.21
2022-12-25T16:29:57.578Z,99456.54
2022-12-25T16:33:03.858Z,99454.52
2022-12-25T16:36:09.233Z,99453.95
2022-12-25T16:39:15.364Z,99441.71
2022-12-25T16:42:21.595Z,99431.43
2022-12-25T16:45:28.010Z,99434.66
2022-12-25T16:48:34.208Z,99431.08
2022-12-25T16:51:40.336Z,99417.34
2022-12-25T16:54:48.082Z,99408.56
2022-12-25T16:57:54.366Z,99407.37
2022-12-25T17:01:05.333Z,99415.88
2022-12-25T17:04:11.710Z,99416.33
2022-12-25T17:07:18.981Z,99429.77
2022-12-25T17:10:25.277Z,99442.17
2022-12-25T17:13:29.820Z,99450.92
2022-12-25T17:16:38.512Z,99461.52
2022-12-25T17:19:44.811Z,99460.61
2022-12-25T17:22:52.927Z,99454.75
2022-12-25T17:26:03.208Z,99445.22
2022-12-25T17:29:09.735Z,99438.77
2022-12-25T17:32:15.911Z,99434.60
2022-12-25T17:35:23.539Z,99424.36
2022-12-25T17:38:29.869Z,99415.70
2022-12-25T17:41:34.475Z,99406.88
2022-12-25T17:44:40.727Z,99393.44
2022-12-25T17:47:47.006Z,99390.72
2022-12-25T17:50:51.561Z,99391.14
2022-12-25T17:54:00.298Z,99388.14
2022-12-25T17:57:06.523Z,99384.56
2022-12-25T18:00:14.395Z,99371.06
2022-12-25T18:03:21.408Z,99366.74
2022-12-25T18:06:29.690Z,99356.70
2022-12-25T18:09:35.927Z,99345.73
2022-12-25T18:12:44.132Z,99348.62
2022-12-25T18:15:50.420Z,99372.64
2022-12-25T18:18:55.030Z,99381.43
2022-12-25T18:22:01.554Z,99377.27
2022-12-25T18:25:09.045Z,99366.02
2022-12-25T18:28:15.690Z,99369.42
2022-12-25T18:31:24.616Z,99373.67
2022-12-25T18:34:30.808Z,99375.97
2022-12-25T18:37:40.223Z,99379.80
2022-12-25T18:40:48.869Z,99387.25
2022-12-25T18:43:55.996Z,99384.84
2022-12-25T18:47:02.576Z,99375.45
2022-12-25T18:50:08.437Z,99373.45
2022-12-25T18:53:14.754Z,99372.49
2022-12-25T18:56:19.468Z,99382.86
2022-12-25T18:59:25.667Z,99385.63
2022-12-25T19:02:32.288Z,99380.09
2022-12-25T19:05:41.505Z,99367.36
2022-12-25T19:08:47.835Z,99357.91
2022-12-25T19:11:53.762Z,99358.39
2022-12-25T19:14:58.227Z,99358.62
2022-12-25T19:18:04.661Z,99361.84
2022-12-25T19:21:11.761Z,99373.23
2022-12-25T19:24:17.960Z,99375.80
2022-12-25T19:27:24.301Z,99372.46
2022-12-25T19:30:28.839Z,99369.22
2022-12-25T19:33:36.177Z,99363.00
2022-12-25T19:36:42.541Z,99359.84
2022-12-25T19:39:47.246Z,99361.02
2022-12-25T19:42:53.519Z,99362.53
2022-12-25T19:46:00.003Z,99363.10
2022-12-25T19:49:07.839Z,99354.49
2022-12-25T19:52:15.253Z,99347.92
2022-12-25T19:55:22.153Z,99349.64
2022-12-25T19:58:28.456Z,99348.98
2022-12-25T20:01:33.454Z,99348.24
2022-12-25T20:04:39.773Z,99350.23
2022-12-25T20:07:46.011Z,99348.39
2022-12-25T20:10:52.741Z,99350.63
2022-12-25T20:13:59.174Z,99350.90
2022-12-25T20:17:07.306Z,99342.75
2022-12-25T20:20:17.561Z,99337.48
2022-12-25T20:23:24.002Z,99335.75
2022-12-25T20:26:32.233Z,99331.61
2022-12-25T20:29:39.797Z,99325.54
2022-12-25T20:32:50.432Z,99322.64
2022-12-25T20:36:00.165Z,99315.95
2022-12-25T20:39:09.849Z,99315.45
2022-12-25T20:42:16.438Z,99314.53
2022-12-25T20:45:22.723Z,99313.05
2022-12-25T20:48:27.227Z,99315.95
2022-12-25T20:51:33.464Z,99317.91
2022-12-25T20:54:40.182Z,99313.50
2022-12-25T20:57:46.461Z,99303.80
2022-12-25T21:00:51.248Z,99296.43
2022-12-25T21:03:57.909Z,99300.84
2022-12-25T21:07:05.259Z,99297.77
2022-12-25T21:10:13.069Z,99281.94
2022-12-25T21:13:20.119Z,99274.56
2022-12-25T21:16:27.360Z,99277.02
2022-12-25T21:19:33.691Z,99278.35
2022-12-25T21:22:38.251Z,99275.74
2022-12-25T21:25:44.593Z,99262.65
2022-12-25T21:28:49.747Z,99266.58
2022-12-25T21:32:28.017Z,99271.09
2022-12-25T21:35:36.683Z,99266.98
2022-12-25T21:38:42.887Z,99255.96
2022-12-25T21:41:49.229Z,99247.54
2022-12-25T21:44:53.688Z,99241.30
2022-12-25T21:48:03.028Z,99235.05
2022-12-25T21:51:32.268Z,99228.97
2022-12-25T21:54:38.705Z,99216.88
2022-12-25T21:57:45.026Z,99217.61
2022-12-25T22:00:49.493Z,99208.56
2022-12-25T22:03:55.722Z,99208.02
2022-12-25T22:07:20.075Z,99208.33
2022-12-25T22:10:26.380Z,99207.59
2022-12-25T22:13:48.369Z,99213.16
2022-12-25T22:17:11.963Z,99198.73
2022-12-25T22:20:20.064Z,99188.46
2022-12-25T22:23:26.317Z,99177.98
2022-12-25T22:26:32.598Z,99186.55
2022-12-25T22:29:37.458Z,99192.86
2022-12-25T22:32:43.742Z,99200.23
2022-12-25T22:35:48.243Z,99202.90
2022-12-25T22:38:54.516Z,99204.11
2022-12-25T22:42:02.405Z,99189.08
2022-12-25T22:45:10.340Z,99185.99
2022-12-25T22:48:16.700Z,99187.92
2022-12-25T22:51:21.192Z,99182.73
2022-12-25T22:54:29.964Z,99177.27
2022-12-25T22:57:36.294Z,99171.70
2022-12-25T23:00:46.264Z,99160.20
2022-12-25T23:03:56.183Z,99158.91
2022-12-25T23:07:02.280Z,99156.81
2022-12-25T23:10:10.830Z,99157.80
2022-12-25T23:13:35.118Z,99161.00
2022-12-25T23:16:41.292Z,99154.13
2022-12-25T23:20:05.329Z,99151.11
2022-12-25T23:23:33.183Z,99152.26
2022-12-25T23:26:39.304Z,99135.31
2022-12-25T23:29:45.635Z,99127.48
2022-12-25T23:32:50.092Z,99118.81
2022-12-25T23:35:56.360Z,99116.94
2022-12-25T23:39:08.578Z,99118.05
2022-12-25T23:42:16.310Z,99118.55
2022-12-25T23:45:20.865Z,99124.79
2022-12-25T23:48:27.243Z,99123.08
2022-12-25T23:51:31.853Z,99119.29
2022-12-25T23:54:38.287Z,99114.87
2022-12-25T23:57:44.627Z,99105.94
